Time;durP1;ratioP1;P1;durP2;ratioP2;P2;SDS_P1;SDS_P2;PMS_P1;PMS_P2;Temp;Humidity;BMP_temperature;BMP_pressure;BME280_temperature;BME280_humidity;BME280_pressure;Samples;Min_cycle;Max_cycle;Signal;HPM_P1;HPM_P2
2021/01/23 00:00:25;;;;;;;67.40;35.25;;;;;;;;;;1824891;79;21143;-86
2021/01/23 00:02:53;;;;;;;66.57;34.70;;;;;;;;;;1824633;79;21197;-86
2021/01/23 00:05:19;;;;;;;59.40;30.57;;;;;;;;;;1824789;79;21630;-85
2021/01/23 00:07:45;;;;;;;68.87;36.60;;;;;;;;;;1824846;79;21136;-86
2021/01/23 00:10:12;;;;;;;70.75;37.10;;;;;;;;;;1824932;79;21190;-86
2021/01/23 00:12:38;;;;;;;74.85;36.53;;;;;;;;;;1824802;79;21144;-87
2021/01/23 00:15:04;;;;;;;80.67;37.70;;;;;;;;;;1824691;79;21163;-86
2021/01/23 00:17:31;;;;;;;71.12;37.38;;;;;;;;;;1824796;79;21567;-85
2021/01/23 00:19:57;;;;;;;69.47;36.35;;;;;;;;;;1824645;79;21139;-86
2021/01/23 00:22:23;;;;;;;72.45;37.98;;;;;;;;;;1824622;79;21152;-84
2021/01/23 00:24:49;;;;;;;74.65;38.23;;;;;;;;;;1825218;79;21151;-86
2021/01/23 00:27:15;;;;;;;70.30;38.08;;;;;;;;;;1824843;79;21579;-85
2021/01/23 00:29:42;;;;;;;81.65;40.28;;;;;;;;;;1824860;79;21587;-86
2021/01/23 00:32:08;;;;;;;72.42;37.73;;;;;;;;;;1820863;79;21155;-86
2021/01/23 00:34:34;;;;;;;76.42;38.30;;;;;;;;;;1819164;79;21163;-86
2021/01/23 00:37:00;;;;;;;77.20;38.45;;;;;;;;;;1818988;79;21207;-86
2021/01/23 00:39:26;;;;;;;76.77;39.40;;;;;;;;;;1818988;79;21147;-85
2021/01/23 00:41:53;;;;;;;73.70;38.80;;;;;;;;;;1819031;79;21156;-86
2021/01/23 00:44:19;;;;;;;65.45;36.10;;;;;;;;;;1819172;79;21116;-86
2021/01/23 00:46:45;;;;;;;66.37;33.63;;;;;;;;;;1818989;79;21159;-86
2021/01/23 00:49:11;;;;;;;71.65;36.15;;;;;;;;;;1818970;79;21194;-85
2021/01/23 00:51:37;;;;;;;65.90;31.65;;;;;;;;;;1818986;79;21136;-86
2021/01/23 00:54:04;;;;;;;59.80;31.42;;;;;;;;;;1819188;79;21167;-85
2021/01/23 00:56:30;;;;;;;67.78;32.83;;;;;;;;;;1818980;79;21164;-85
2021/01/23 00:58:56;;;;;;;61.58;34.10;;;;;;;;;;1819146;79;21579;-86
2021/01/23 01:01:25;;;;;;;64.10;32.23;;;;;;;;;;1785608;79;21154;-86
2021/01/23 01:03:51;;;;;;;63.00;30.82;;;;;;;;;;1819041;79;21109;-86
2021/01/23 01:06:20;;;;;;;67.17;32.15;;;;;;;;;;1819025;79;21167;-86
2021/01/23 01:08:47;;;;;;;57.10;31.95;;;;;;;;;;1819054;79;21171;-85
2021/01/23 01:11:13;;;;;;;58.55;31.55;;;;;;;;;;1818886;79;21144;-85
2021/01/23 01:13:39;;;;;;;62.27;31.95;;;;;;;;;;1819090;79;21166;-86
2021/01/23 01:16:05;;;;;;;65.42;34.20;;;;;;;;;;1819001;79;21594;-85
2021/01/23 01:18:31;;;;;;;57.13;30.05;;;;;;;;;;1818963;79;21215;-86
2021/01/23 01:20:58;;;;;;;63.83;30.48;;;;;;;;;;1818934;79;21139;-86
2021/01/23 01:23:24;;;;;;;64.00;31.65;;;;;;;;;;1818805;79;21168;-85
2021/01/23 01:25:50;;;;;;;61.88;31.75;;;;;;;;;;1818989;79;21144;-86
2021/01/23 01:28:16;;;;;;;59.60;30.32;;;;;;;;;;1819208;79;21233;-85
2021/01/23 01:30:42;;;;;;;57.55;28.98;;;;;;;;;;1818779;79;21170;-86
2021/01/23 01:33:09;;;;;;;56.02;29.12;;;;;;;;;;1824607;79;21143;-85
2021/01/23 01:35:35;;;;;;;57.55;29.57;;;;;;;;;;1824583;79;21131;-86
2021/01/23 01:38:02;;;;;;;62.90;31.12;;;;;;;;;;1824732;79;21146;-86
2021/01/23 01:40:28;;;;;;;53.65;30.00;;;;;;;;;;1824893;79;21147;-86
2021/01/23 01:42:56;;;;;;;54.05;28.42;;;;;;;;;;1824829;79;21163;-85
2021/01/23 01:45:22;;;;;;;55.73;28.40;;;;;;;;;;1825220;79;21159;-86
2021/01/23 01:47:48;;;;;;;58.83;28.87;;;;;;;;;;1825077;79;21152;-86
2021/01/23 01:50:14;;;;;;;61.37;29.87;;;;;;;;;;1825294;79;21321;-85
2021/01/23 01:52:43;;;;;;;57.90;27.93;;;;;;;;;;1825124;79;21567;-86
2021/01/23 01:55:10;;;;;;;52.40;28.32;;;;;;;;;;1825005;79;21558;-86
2021/01/23 01:57:36;;;;;;;57.65;28.95;;;;;;;;;;1825198;79;21188;-86
2021/01/23 02:00:04;;;;;;;55.35;27.20;;;;;;;;;;1825053;79;21164;-87
2021/01/23 02:02:41;;;;;;;51.58;27.25;;;;;;;;;;1825101;79;21575;-85
2021/01/23 02:05:12;;;;;;;46.48;23.27;;;;;;;;;;1825054;78;21593;-86
2021/01/23 02:07:43;;;;;;;49.50;25.17;;;;;;;;;;1757826;80;21186;-86
2021/01/23 02:10:16;;;;;;;47.35;23.57;;;;;;;;;;1748082;82;21156;-86
2021/01/23 02:12:50;;;;;;;45.50;25.48;;;;;;;;;;1787041;80;21302;-85
2021/01/23 02:15:18;;;;;;;44.88;23.12;;;;;;;;;;1755367;82;21188;-86
2021/01/23 02:17:49;;;;;;;39.08;21.10;;;;;;;;;;1786534;80;21313;-84
2021/01/23 02:20:34;;;;;;;49.45;24.40;;;;;;;;;;1786425;80;21165;-85
2021/01/23 02:23:17;;;;;;;41.53;22.37;;;;;;;;;;1786168;80;21604;-86
2021/01/23 02:25:59;;;;;;;46.55;24.43;;;;;;;;;;1786479;80;21165;-86
2021/01/23 02:28:44;;;;;;;40.90;21.25;;;;;;;;;;1786266;80;21189;-85
2021/01/23 02:31:16;;;;;;;44.88;22.65;;;;;;;;;;1784391;79;21185;-86
2021/01/23 02:33:42;;;;;;;46.58;22.32;;;;;;;;;;1752985;82;21139;-86
2021/01/23 02:36:09;;;;;;;45.55;24.35;;;;;;;;;;1752507;82;21179;-85
2021/01/23 02:38:35;;;;;;;45.10;23.32;;;;;;;;;;1752542;82;21163;-85
2021/01/23 02:41:02;;;;;;;42.17;22.52;;;;;;;;;;1752575;82;21182;-85
2021/01/23 02:43:30;;;;;;;48.85;27.17;;;;;;;;;;1752465;82;21614;-86
2021/01/23 02:45:56;;;;;;;44.00;24.05;;;;;;;;;;1751661;82;21642;-86
2021/01/23 02:48:22;;;;;;;47.80;23.05;;;;;;;;;;1752643;82;21603;-85
2021/01/23 02:50:48;;;;;;;41.33;23.50;;;;;;;;;;1752551;82;21160;-86
2021/01/23 02:53:16;;;;;;;45.65;22.50;;;;;;;;;;1752698;82;21135;-85
2021/01/23 02:55:43;;;;;;;37.05;20.97;;;;;;;;;;1752648;82;21586;-85
2021/01/23 02:58:09;;;;;;;42.67;22.32;;;;;;;;;;1752707;82;21175;-86
2021/01/23 03:00:35;;;;;;;39.35;22.07;;;;;;;;;;1752522;82;21172;-86
2021/01/23 03:03:01;;;;;;;44.50;21.48;;;;;;;;;;1752532;81;21572;-86
2021/01/23 03:05:29;;;;;;;38.78;22.15;;;;;;;;;;1752767;82;21210;-87
2021/01/23 03:07:55;;;;;;;39.70;22.70;;;;;;;;;;1752795;82;21166;-86
2021/01/23 03:10:37;;;;;;;41.65;23.40;;;;;;;;;;1752761;82;21167;-87
2021/01/23 03:13:04;;;;;;;41.58;19.98;;;;;;;;;;1752743;82;21171;-85
2021/01/23 03:15:30;;;;;;;42.58;23.22;;;;;;;;;;1752659;82;21171;-85
2021/01/23 03:17:56;;;;;;;38.17;19.75;;;;;;;;;;1752892;82;21147;-86
2021/01/23 03:20:22;;;;;;;41.05;21.68;;;;;;;;;;1753027;82;21139;-86
2021/01/23 03:22:48;;;;;;;52.45;25.90;;;;;;;;;;1752693;82;21606;-86
2021/01/23 03:25:15;;;;;;;40.35;21.45;;;;;;;;;;1752756;82;21190;-86
2021/01/23 03:27:41;;;;;;;41.75;23.27;;;;;;;;;;1752944;82;21196;-86
2021/01/23 03:30:08;;;;;;;41.95;22.75;;;;;;;;;;1752836;82;21179;-86
2021/01/23 03:32:34;;;;;;;40.75;21.33;;;;;;;;;;1766803;80;21667;-87
2021/01/23 03:35:01;;;;;;;47.35;22.82;;;;;;;;;;1780336;80;21153;-87
2021/01/23 03:37:27;;;;;;;42.93;21.80;;;;;;;;;;1780756;80;21157;-86
2021/01/23 03:39:53;;;;;;;43.28;23.25;;;;;;;;;;1780312;80;21581;-86
2021/01/23 03:42:19;;;;;;;43.42;21.90;;;;;;;;;;1780303;80;21181;-86
2021/01/23 03:44:46;;;;;;;36.70;20.02;;;;;;;;;;1780562;80;21605;-85
2021/01/23 03:47:12;;;;;;;46.02;22.45;;;;;;;;;;1780568;80;21252;-86
2021/01/23 03:49:39;;;;;;;34.98;19.30;;;;;;;;;;1780299;80;21158;-85
2021/01/23 03:52:06;;;;;;;45.60;22.37;;;;;;;;;;1780489;80;21162;-85
2021/01/23 03:54:32;;;;;;;43.08;20.92;;;;;;;;;;1780425;80;21727;-85
2021/01/23 03:56:58;;;;;;;40.75;21.50;;;;;;;;;;1780243;80;21158;-86
2021/01/23 03:59:24;;;;;;;38.08;19.50;;;;;;;;;;1780243;80;21197;-85
2021/01/23 04:01:50;;;;;;;37.70;19.85;;;;;;;;;;1779889;80;21573;-85
2021/01/23 04:04:16;;;;;;;40.00;20.92;;;;;;;;;;1780242;80;21137;-86
2021/01/23 04:06:43;;;;;;;37.33;19.87;;;;;;;;;;1780367;80;21572;-85
2021/01/23 04:09:09;;;;;;;45.83;22.87;;;;;;;;;;1780211;80;21608;-85
2021/01/23 04:11:35;;;;;;;42.33;20.37;;;;;;;;;;1780215;80;21211;-86
2021/01/23 04:14:01;;;;;;;37.83;19.75;;;;;;;;;;1780354;80;21177;-84
2021/01/23 04:16:27;;;;;;;40.95;19.80;;;;;;;;;;1780382;80;21625;-84
2021/01/23 04:18:54;;;;;;;35.75;18.75;;;;;;;;;;1780326;80;21181;-85
2021/01/23 04:21:20;;;;;;;42.23;20.43;;;;;;;;;;1780433;80;21651;-85
2021/01/23 04:23:46;;;;;;;35.08;19.15;;;;;;;;;;1780694;80;21137;-85
2021/01/23 04:26:12;;;;;;;40.88;20.88;;;;;;;;;;1780451;80;21161;-85
2021/01/23 04:28:38;;;;;;;42.15;20.85;;;;;;;;;;1780316;80;21160;-84
2021/01/23 04:31:05;;;;;;;44.15;22.87;;;;;;;;;;1780146;80;21173;-85
2021/01/23 04:33:31;;;;;;;41.25;20.50;;;;;;;;;;1768553;79;21660;-84
2021/01/23 04:35:57;;;;;;;42.78;21.20;;;;;;;;;;1765656;81;21173;-86
2021/01/23 04:38:24;;;;;;;38.55;21.40;;;;;;;;;;1765528;81;21153;-86
2021/01/23 04:40:50;;;;;;;37.93;19.87;;;;;;;;;;1765570;81;21163;-86
2021/01/23 04:43:16;;;;;;;37.67;20.68;;;;;;;;;;1765561;81;21223;-86
2021/01/23 04:45:42;;;;;;;35.45;18.77;;;;;;;;;;1765586;81;21205;-84
2021/01/23 04:48:08;;;;;;;44.05;21.25;;;;;;;;;;1765829;81;21295;-87
2021/01/23 04:50:34;;;;;;;44.23;21.10;;;;;;;;;;1765702;81;21153;-86
2021/01/23 04:53:00;;;;;;;38.67;20.57;;;;;;;;;;1765533;81;21146;-86
2021/01/23 04:55:27;;;;;;;43.20;22.13;;;;;;;;;;1765529;81;21585;-86
2021/01/23 04:57:53;;;;;;;47.58;22.15;;;;;;;;;;1765685;81;21141;-86
2021/01/23 05:00:22;;;;;;;49.95;23.30;;;;;;;;;;1765566;81;21185;-86
2021/01/23 05:03:06;;;;;;;44.25;21.10;;;;;;;;;;1765594;81;21172;-85
2021/01/23 05:05:32;;;;;;;39.80;18.87;;;;;;;;;;1765867;81;21173;-86
2021/01/23 05:08:05;;;;;;;39.92;20.00;;;;;;;;;;1765584;81;21159;-86
2021/01/23 05:10:49;;;;;;;;;;;;;;;;;;;;;
2021/01/23 05:13:29;;;;;;;37.67;20.08;;;;;;;;;;1741297;81;21601;-87
2021/01/23 05:15:56;;;;;;;37.55;18.80;;;;;;;;;;1765751;81;21157;-87
2021/01/23 05:18:22;;;;;;;37.53;19.30;;;;;;;;;;1765456;81;21584;-84
2021/01/23 05:20:49;;;;;;;36.93;19.87;;;;;;;;;;1765558;81;21596;-86
2021/01/23 05:23:23;;;;;;;33.60;18.73;;;;;;;;;;1765410;81;21130;-86
2021/01/23 05:25:51;;;;;;;38.45;20.25;;;;;;;;;;1765501;81;21169;-86
2021/01/23 05:28:27;;;;;;;35.75;19.92;;;;;;;;;;1765754;81;21608;-86
2021/01/23 05:30:54;;;;;;;36.40;19.05;;;;;;;;;;1765665;81;21636;-85
2021/01/23 05:33:21;;;;;;;41.37;19.85;;;;;;;;;;1774397;80;21604;-85
2021/01/23 05:35:58;;;;;;;38.58;21.00;;;;;;;;;;1780425;80;21161;-87
2021/01/23 05:38:26;;;;;;;40.33;19.52;;;;;;;;;;1780325;80;21208;-86
2021/01/23 05:40:53;;;;;;;30.30;17.30;;;;;;;;;;1777213;80;21600;-85
2021/01/23 05:43:30;;;;;;;35.88;19.62;;;;;;;;;;1780273;80;21600;-86
2021/01/23 05:45:56;;;;;;;33.88;18.55;;;;;;;;;;1780148;80;21126;-86
2021/01/23 05:48:23;;;;;;;33.33;17.52;;;;;;;;;;1780419;80;21295;-86
2021/01/23 05:50:50;;;;;;;33.95;17.40;;;;;;;;;;1780133;80;21118;-86
2021/01/23 05:53:16;;;;;;;34.30;17.95;;;;;;;;;;1780216;80;21615;-86
2021/01/23 05:55:42;;;;;;;34.33;18.62;;;;;;;;;;1780277;80;21164;-85
2021/01/23 05:58:08;;;;;;;31.68;17.42;;;;;;;;;;1780284;80;21157;-85
2021/01/23 06:00:35;;;;;;;33.75;16.77;;;;;;;;;;1780141;80;21645;-85
2021/01/23 06:03:01;;;;;;;31.60;17.67;;;;;;;;;;1780247;80;21157;-86
2021/01/23 06:05:27;;;;;;;37.17;19.73;;;;;;;;;;1780085;80;21168;-86
2021/01/23 06:07:53;;;;;;;37.67;19.35;;;;;;;;;;1780406;80;21153;-86
2021/01/23 06:10:24;;;;;;;35.25;18.37;;;;;;;;;;1780303;80;21327;-86
2021/01/23 06:12:54;;;;;;;34.03;18.80;;;;;;;;;;1780232;80;21169;-86
2021/01/23 06:15:34;;;;;;;37.25;18.45;;;;;;;;;;1780322;80;21158;-86
2021/01/23 06:18:01;;;;;;;33.18;16.82;;;;;;;;;;1780237;80;21589;-86
2021/01/23 06:20:44;;;;;;;35.17;18.80;;;;;;;;;;1780381;80;21295;-86
2021/01/23 06:23:11;;;;;;;28.20;16.02;;;;;;;;;;1780190;80;21156;-84
2021/01/23 06:25:51;;;;;;;34.00;18.92;;;;;;;;;;1780199;80;21165;-86
2021/01/23 06:28:19;;;;;;;34.38;17.17;;;;;;;;;;1780346;80;21327;-85
2021/01/23 06:30:45;;;;;;;29.18;16.82;;;;;;;;;;1760074;80;21153;-86
2021/01/23 06:33:25;;;;;;;33.40;15.38;;;;;;;;;;1782447;80;21141;-85
2021/01/23 06:36:05;;;;;;;37.83;18.07;;;;;;;;;;1786156;80;21153;-86
2021/01/23 06:38:34;;;;;;;29.12;16.35;;;;;;;;;;1786124;80;21537;-87
2021/01/23 06:41:20;;;;;;;29.12;15.03;;;;;;;;;;1785781;80;21631;-86
2021/01/23 06:44:06;;;;;;;37.88;17.45;;;;;;;;;;1786135;80;21177;-86
2021/01/23 06:46:34;;;;;;;33.33;18.02;;;;;;;;;;1786025;80;21173;-85
2021/01/23 06:51:42;;;;;;;30.55;17.40;;;;;;;;;;1812914;79;23039;-86
2021/01/23 06:54:12;;;;;;;35.17;19.20;;;;;;;;;;1784020;80;21193;-85
2021/01/23 06:56:40;;;;;;;32.60;16.15;;;;;;;;;;1783945;80;21606;-85
2021/01/23 06:59:07;;;;;;;37.23;19.65;;;;;;;;;;1783089;80;21563;-86
2021/01/23 07:01:33;;;;;;;36.08;19.62;;;;;;;;;;1784070;80;21163;-86
2021/01/23 07:03:59;;;;;;;31.90;18.82;;;;;;;;;;1784203;80;21628;-85
2021/01/23 07:06:29;;;;;;;36.25;19.23;;;;;;;;;;1755603;80;21127;-85
2021/01/23 07:08:55;;;;;;;23.70;13.18;;;;;;;;;;1784054;80;21150;-85
2021/01/23 07:11:21;;;;;;;32.10;18.55;;;;;;;;;;1783837;80;21143;-86
2021/01/23 07:14:06;;;;;;;27.93;16.93;;;;;;;;;;1784025;80;21847;-85
2021/01/23 07:16:33;;;;;;;34.23;19.48;;;;;;;;;;1783854;80;21536;-85
2021/01/23 07:19:01;;;;;;;36.08;19.37;;;;;;;;;;1783875;80;21660;-85
2021/01/23 07:21:29;;;;;;;33.40;19.70;;;;;;;;;;1783800;80;21142;-86
2021/01/23 07:23:55;;;;;;;30.72;17.77;;;;;;;;;;1784053;80;21162;-85
2021/01/23 07:26:21;;;;;;;37.78;20.52;;;;;;;;;;1783895;80;21154;-85
2021/01/23 07:28:49;;;;;;;35.50;19.55;;;;;;;;;;1784106;80;21162;-85
2021/01/23 07:31:19;;;;;;;37.85;20.52;;;;;;;;;;1784321;80;21178;-85
2021/01/23 07:33:45;;;;;;;31.45;18.25;;;;;;;;;;1782972;80;21593;-84
2021/01/23 07:36:14;;;;;;;37.28;19.30;;;;;;;;;;1783924;80;21198;-85
2021/01/23 07:38:40;;;;;;;40.58;22.58;;;;;;;;;;1781129;80;21119;-86
2021/01/23 07:41:07;;;;;;;40.03;23.25;;;;;;;;;;1783851;80;21147;-87
2021/01/23 07:43:33;;;;;;;39.90;21.57;;;;;;;;;;1783776;80;21141;-86
2021/01/23 07:45:59;;;;;;;44.60;24.02;;;;;;;;;;1783923;80;21154;-86
2021/01/23 07:48:25;;;;;;;48.68;25.23;;;;;;;;;;1783871;80;21174;-85
2021/01/23 07:50:56;;;;;;;50.10;25.60;;;;;;;;;;1788780;80;21170;-85
2021/01/23 07:53:22;;;;;;;43.68;23.52;;;;;;;;;;1792714;80;21145;-86
2021/01/23 07:55:48;;;;;;;45.90;22.73;;;;;;;;;;1792805;80;21149;-86
2021/01/23 07:58:14;;;;;;;47.65;26.17;;;;;;;;;;1792728;80;21153;-85
2021/01/23 08:00:40;;;;;;;45.95;25.43;;;;;;;;;;1792830;80;21175;-85
2021/01/23 08:03:07;;;;;;;45.08;26.15;;;;;;;;;;1792185;80;21158;-84
2021/01/23 08:05:44;;;;;;;53.65;28.73;;;;;;;;;;1792432;80;21500;-87
2021/01/23 08:08:17;;;;;;;44.03;24.67;;;;;;;;;;1792364;80;21222;-87
2021/01/23 08:10:43;;;;;;;45.28;24.50;;;;;;;;;;1792360;80;21185;-87
2021/01/23 08:13:10;;;;;;;44.30;25.05;;;;;;;;;;1792235;80;21284;-87
2021/01/23 08:15:36;;;;;;;41.53;23.62;;;;;;;;;;1792260;80;21590;-87
2021/01/23 08:18:04;;;;;;;40.80;22.55;;;;;;;;;;1792159;80;21169;-85
2021/01/23 08:20:34;;;;;;;37.35;22.45;;;;;;;;;;1790406;80;21115;-86
2021/01/23 08:23:03;;;;;;;44.58;22.95;;;;;;;;;;1792250;80;21299;-85
2021/01/23 08:25:37;;;;;;;38.85;23.65;;;;;;;;;;1792109;80;21597;-84
2021/01/23 08:28:04;;;;;;;35.95;21.10;;;;;;;;;;1774241;80;21191;-85
2021/01/23 08:30:30;;;;;;;40.55;22.42;;;;;;;;;;1792063;80;21305;-85
2021/01/23 08:32:56;;;;;;;40.63;22.60;;;;;;;;;;1792107;80;21570;-86
2021/01/23 08:35:23;;;;;;;35.08;20.45;;;;;;;;;;1792154;80;21169;-86
2021/01/23 08:37:49;;;;;;;42.80;23.73;;;;;;;;;;1792247;80;21158;-85
2021/01/23 08:40:19;;;;;;;37.95;22.27;;;;;;;;;;1792582;80;21217;-86
2021/01/23 08:42:46;;;;;;;38.85;22.30;;;;;;;;;;1792157;80;21186;-85
2021/01/23 08:45:12;;;;;;;52.88;31.17;;;;;;;;;;1792193;80;21208;-85
2021/01/23 08:47:40;;;;;;;47.62;29.32;;;;;;;;;;1792124;80;21581;-86
2021/01/23 08:50:07;;;;;;;44.90;25.35;;;;;;;;;;1791004;80;21205;-85
2021/01/23 08:52:33;;;;;;;44.58;27.50;;;;;;;;;;1783432;80;21123;-86
2021/01/23 08:55:00;;;;;;;42.40;25.05;;;;;;;;;;1783233;80;21276;-85
2021/01/23 08:57:26;;;;;;;45.65;24.90;;;;;;;;;;1783247;80;21134;-85
2021/01/23 08:59:54;;;;;;;40.85;23.98;;;;;;;;;;1783169;80;21174;-85
2021/01/23 09:02:23;;;;;;;37.03;20.15;;;;;;;;;;1783169;80;21611;-86
2021/01/23 09:04:49;;;;;;;36.23;21.00;;;;;;;;;;1783389;80;21292;-84
2021/01/23 09:07:16;;;;;;;37.42;21.00;;;;;;;;;;1783525;80;21134;-85
2021/01/23 09:09:48;;;;;;;34.18;20.25;;;;;;;;;;1783307;80;21899;-86
2021/01/23 09:12:11;;;;;;;33.23;20.37;;;;;;;;;;1781109;80;21138;-86
2021/01/23 09:14:38;;;;;;;25.97;15.60;;;;;;;;;;1783232;80;21394;-86
2021/01/23 09:17:05;;;;;;;30.52;17.25;;;;;;;;;;1783429;80;21760;-86
2021/01/23 09:19:31;;;;;;;20.30;13.22;;;;;;;;;;1783377;80;21586;-85
2021/01/23 09:21:57;;;;;;;19.67;10.63;;;;;;;;;;1783630;80;21304;-86
2021/01/23 09:24:23;;;;;;;19.27;11.08;;;;;;;;;;1783261;80;21370;-85
2021/01/23 09:26:50;;;;;;;7.42;4.58;;;;;;;;;;1783219;80;21574;-85
2021/01/23 09:29:19;;;;;;;23.83;11.15;;;;;;;;;;1783256;80;21150;-85
2021/01/23 09:31:45;;;;;;;17.40;9.63;;;;;;;;;;1783249;80;21163;-85
2021/01/23 09:34:14;;;;;;;16.45;9.98;;;;;;;;;;1783106;80;21123;-86
2021/01/23 09:36:40;;;;;;;9.93;5.37;;;;;;;;;;1755305;80;21230;-84
2021/01/23 09:39:07;;;;;;;20.23;9.83;;;;;;;;;;1783337;80;21196;-85
2021/01/23 09:41:39;;;;;;;20.62;12.85;;;;;;;;;;1783491;80;21570;-86
2021/01/23 09:44:36;;;;;;;17.77;10.93;;;;;;;;;;1783693;80;21138;-85
2021/01/23 09:47:02;;;;;;;20.02;11.12;;;;;;;;;;1783302;80;21158;-86
2021/01/23 09:49:29;;;;;;;16.93;10.88;;;;;;;;;;1783263;80;21288;-86
2021/01/23 09:51:55;;;;;;;16.20;8.83;;;;;;;;;;1783638;80;21130;-85
2021/01/23 09:54:21;;;;;;;14.58;8.60;;;;;;;;;;1783226;80;21743;-85
2021/01/23 09:56:52;;;;;;;14.68;9.68;;;;;;;;;;1783157;80;21144;-86
2021/01/23 09:59:18;;;;;;;11.73;7.05;;;;;;;;;;1782302;80;21178;-85
2021/01/23 10:01:47;;;;;;;15.53;8.25;;;;;;;;;;1783125;80;21293;-85
2021/01/23 10:04:14;;;;;;;17.30;9.15;;;;;;;;;;1783218;80;21288;-84
2021/01/23 10:06:41;;;;;;;14.25;8.33;;;;;;;;;;1783456;80;21195;-86
2021/01/23 10:09:09;;;;;;;13.78;7.47;;;;;;;;;;1783260;80;21277;-85
2021/01/23 10:11:39;;;;;;;13.83;7.83;;;;;;;;;;1782951;80;21147;-84
2021/01/23 10:14:08;;;;;;;7.58;4.70;;;;;;;;;;1783017;80;21146;-84
2021/01/23 10:16:39;;;;;;;8.43;5.25;;;;;;;;;;1783278;80;21182;-85
2021/01/23 10:19:04;;;;;;;5.47;3.08;;;;;;;;;;1780598;80;21178;-85
2021/01/23 10:21:30;;;;;;;7.85;5.28;;;;;;;;;;1782991;80;21203;-86
2021/01/23 10:24:02;;;;;;;11.12;6.83;;;;;;;;;;1783108;80;21167;-85
2021/01/23 10:26:25;;;;;;;11.95;7.65;;;;;;;;;;1782361;80;21150;-85
2021/01/23 10:28:52;;;;;;;14.68;7.92;;;;;;;;;;1783586;80;21182;-85
2021/01/23 10:31:18;;;;;;;13.00;8.05;;;;;;;;;;1783657;80;21527;-85
2021/01/23 10:33:44;;;;;;;10.48;7.08;;;;;;;;;;1783303;80;21748;-86
2021/01/23 10:36:13;;;;;;;11.63;7.90;;;;;;;;;;1783693;80;21292;-86
2021/01/23 10:38:45;;;;;;;12.10;8.03;;;;;;;;;;1783171;80;21145;-85
2021/01/23 10:41:13;;;;;;;13.20;6.97;;;;;;;;;;1782783;80;21126;-85
2021/01/23 10:43:39;;;;;;;8.53;4.55;;;;;;;;;;1783382;80;21146;-85
2021/01/23 10:46:05;;;;;;;7.80;3.92;;;;;;;;;;1783458;80;21174;-85
2021/01/23 10:48:31;;;;;;;6.45;3.77;;;;;;;;;;1783194;80;21543;-85
2021/01/23 10:50:58;;;;;;;5.97;3.67;;;;;;;;;;1785353;80;21554;-85
2021/01/23 10:53:24;;;;;;;7.20;4.62;;;;;;;;;;1794587;80;21212;-84
2021/01/23 10:55:54;;;;;;;7.65;4.37;;;;;;;;;;1794560;80;21145;-85
2021/01/23 10:58:21;;;;;;;7.17;4.20;;;;;;;;;;1794324;80;21111;-86
2021/01/23 11:00:47;;;;;;;5.42;3.42;;;;;;;;;;1794509;80;21573;-85
2021/01/23 11:03:16;;;;;;;8.73;5.60;;;;;;;;;;1794653;80;21146;-85
2021/01/23 11:05:43;;;;;;;15.95;8.33;;;;;;;;;;1794486;80;21146;-85
2021/01/23 11:08:09;;;;;;;15.25;8.95;;;;;;;;;;1794407;80;21166;-85
2021/01/23 11:10:36;;;;;;;15.35;9.70;;;;;;;;;;1794490;80;21174;-84
2021/01/23 11:13:04;;;;;;;13.60;7.90;;;;;;;;;;1794651;80;21153;-85
2021/01/23 11:15:31;;;;;;;15.72;10.08;;;;;;;;;;1794203;80;21138;-85
2021/01/23 11:17:57;;;;;;;15.40;9.20;;;;;;;;;;1794623;80;21576;-85
2021/01/23 11:20:23;;;;;;;15.08;9.00;;;;;;;;;;1794761;80;21292;-86
2021/01/23 11:22:50;;;;;;;13.20;8.45;;;;;;;;;;1794432;80;21154;-85
2021/01/23 11:25:16;;;;;;;14.45;8.18;;;;;;;;;;1794672;80;21177;-86
2021/01/23 11:27:43;;;;;;;12.95;8.63;;;;;;;;;;1794502;80;21602;-85
2021/01/23 11:30:10;;;;;;;15.38;9.73;;;;;;;;;;1794569;80;21126;-85
2021/01/23 11:32:37;;;;;;;18.55;9.98;;;;;;;;;;1794775;80;21193;-85
2021/01/23 11:35:05;;;;;;;16.32;10.35;;;;;;;;;;1794490;80;21175;-85
2021/01/23 11:37:32;;;;;;;18.12;9.98;;;;;;;;;;1793667;80;21143;-85
2021/01/23 11:39:58;;;;;;;17.57;9.95;;;;;;;;;;1794668;80;21193;-85
2021/01/23 11:42:25;;;;;;;17.77;9.95;;;;;;;;;;1794971;80;21146;-84
2021/01/23 11:44:51;;;;;;;15.78;10.30;;;;;;;;;;1794578;80;21306;-84
2021/01/23 11:47:17;;;;;;;19.98;10.15;;;;;;;;;;1794883;80;21146;-85
2021/01/23 11:49:46;;;;;;;18.92;11.28;;;;;;;;;;1794413;80;21190;-85
2021/01/23 11:52:13;;;;;;;17.05;9.75;;;;;;;;;;1787737;80;21131;-85
2021/01/23 11:54:41;;;;;;;19.55;10.45;;;;;;;;;;1783119;80;21264;-85
2021/01/23 11:57:08;;;;;;;18.10;10.38;;;;;;;;;;1783162;80;21192;-84
2021/01/23 11:59:37;;;;;;;19.02;11.28;;;;;;;;;;1783384;80;21194;-85
2021/01/23 12:02:06;;;;;;;16.73;9.30;;;;;;;;;;1783202;80;21269;-85
2021/01/23 12:04:33;;;;;;;19.42;12.00;;;;;;;;;;1783282;80;21182;-86
2021/01/23 12:07:03;;;;;;;17.77;11.60;;;;;;;;;;1783226;80;21123;-85
2021/01/23 12:09:29;;;;;;;21.95;11.60;;;;;;;;;;1783659;80;21329;-84
2021/01/23 12:11:55;;;;;;;20.32;12.20;;;;;;;;;;1783338;80;21119;-86
2021/01/23 12:14:23;;;;;;;22.48;11.97;;;;;;;;;;1783144;80;21150;-84
2021/01/23 12:16:50;;;;;;;18.87;11.35;;;;;;;;;;1783194;80;21143;-85
2021/01/23 12:19:16;;;;;;;20.30;12.05;;;;;;;;;;1783173;80;21142;-85
2021/01/23 12:21:43;;;;;;;19.23;10.93;;;;;;;;;;1783368;80;21595;-85
2021/01/23 12:24:09;;;;;;;20.77;12.53;;;;;;;;;;1783488;80;21288;-85
2021/01/23 12:26:36;;;;;;;17.65;11.25;;;;;;;;;;1783123;80;21155;-85
2021/01/23 12:29:03;;;;;;;19.62;11.53;;;;;;;;;;1783245;80;21151;-84
2021/01/23 12:31:30;;;;;;;19.42;11.60;;;;;;;;;;1783127;80;21154;-85
2021/01/23 12:33:56;;;;;;;18.37;10.90;;;;;;;;;;1783298;80;21127;-85
2021/01/23 12:36:22;;;;;;;20.25;11.93;;;;;;;;;;1783371;80;21297;-85
2021/01/23 12:38:52;;;;;;;17.57;11.43;;;;;;;;;;1783322;80;21780;-85
2021/01/23 12:41:18;;;;;;;16.65;10.95;;;;;;;;;;1783314;80;21178;-85
2021/01/23 12:43:44;;;;;;;18.32;10.58;;;;;;;;;;1783189;80;21308;-86
2021/01/23 12:46:10;;;;;;;18.30;11.70;;;;;;;;;;1783214;80;21154;-86
2021/01/23 12:48:36;;;;;;;24.80;11.57;;;;;;;;;;1783211;80;21346;-85
2021/01/23 12:51:03;;;;;;;18.20;10.23;;;;;;;;;;1783462;80;21181;-85
2021/01/23 12:53:29;;;;;;;17.12;12.05;;;;;;;;;;1794639;80;21580;-85
2021/01/23 12:55:55;;;;;;;21.23;10.65;;;;;;;;;;1794649;80;21170;-85
2021/01/23 12:58:22;;;;;;;21.75;11.95;;;;;;;;;;1794764;80;21150;-85
2021/01/23 13:00:51;;;;;;;18.87;11.30;;;;;;;;;;1794957;80;21608;-84
2021/01/23 13:03:17;;;;;;;19.17;11.33;;;;;;;;;;1794681;80;21134;-84
2021/01/23 13:05:44;;;;;;;20.77;12.50;;;;;;;;;;1794531;80;21151;-86
2021/01/23 13:08:12;;;;;;;20.27;12.05;;;;;;;;;;1794595;80;21126;-85
2021/01/23 13:10:38;;;;;;;20.12;12.05;;;;;;;;;;1793943;80;21137;-85
2021/01/23 13:13:05;;;;;;;21.33;12.60;;;;;;;;;;1794823;80;21170;-85
2021/01/23 13:15:31;;;;;;;20.25;13.00;;;;;;;;;;1794930;80;21122;-84
2021/01/23 13:17:58;;;;;;;23.42;13.13;;;;;;;;;;1794703;80;21146;-85
2021/01/23 13:20:24;;;;;;;25.37;13.35;;;;;;;;;;1794757;80;21189;-86
2021/01/23 13:22:53;;;;;;;26.82;13.70;;;;;;;;;;1794482;80;21158;-86
2021/01/23 13:25:19;;;;;;;17.75;12.00;;;;;;;;;;1794746;80;21161;-85
2021/01/23 13:27:46;;;;;;;28.38;12.68;;;;;;;;;;1794522;80;21141;-85
2021/01/23 13:30:12;;;;;;;19.32;12.40;;;;;;;;;;1794502;80;21153;-86
2021/01/23 13:32:43;;;;;;;24.50;14.38;;;;;;;;;;1792050;80;21553;-84
2021/01/23 13:35:07;;;;;;;21.40;13.32;;;;;;;;;;1762384;81;21206;-85
2021/01/23 13:37:33;;;;;;;21.07;12.82;;;;;;;;;;1763393;81;21291;-86
2021/01/23 13:39:59;;;;;;;22.30;12.75;;;;;;;;;;1763509;81;21299;-85
2021/01/23 13:42:28;;;;;;;22.05;13.32;;;;;;;;;;1763424;81;21287;-85
2021/01/23 13:44:55;;;;;;;22.75;14.00;;;;;;;;;;1763239;81;21405;-85
2021/01/23 13:47:21;;;;;;;25.02;14.55;;;;;;;;;;1763447;81;21275;-85
2021/01/23 13:49:47;;;;;;;23.18;14.68;;;;;;;;;;1763360;81;21178;-86
2021/01/23 13:52:14;;;;;;;23.62;14.00;;;;;;;;;;1763392;81;21154;-85
2021/01/23 13:54:41;;;;;;;25.70;14.85;;;;;;;;;;1763711;81;21170;-86
2021/01/23 13:57:08;;;;;;;24.27;15.53;;;;;;;;;;1763354;81;21161;-86
2021/01/23 13:59:34;;;;;;;29.87;14.98;;;;;;;;;;1789062;80;21480;-84
2021/01/23 14:02:03;;;;;;;26.82;14.55;;;;;;;;;;1763729;81;21162;-85
2021/01/23 14:04:29;;;;;;;21.48;12.25;;;;;;;;;;1763370;81;21581;-85
2021/01/23 14:06:55;;;;;;;14.10;7.85;;;;;;;;;;1763192;81;21335;-86
2021/01/23 14:09:21;;;;;;;14.50;7.55;;;;;;;;;;1763240;81;21189;-85
2021/01/23 14:11:48;;;;;;;16.87;8.83;;;;;;;;;;1763333;81;21186;-85
2021/01/23 14:14:14;;;;;;;18.65;11.45;;;;;;;;;;1763259;81;21153;-85
2021/01/23 14:16:40;;;;;;;23.25;14.03;;;;;;;;;;1763396;81;21157;-85
2021/01/23 14:19:06;;;;;;;27.95;17.52;;;;;;;;;;1763166;81;21182;-85
2021/01/23 14:21:35;;;;;;;29.12;17.90;;;;;;;;;;1763165;81;21161;-86
2021/01/23 14:24:00;;;;;;;28.83;17.55;;;;;;;;;;1763187;81;21593;-85
2021/01/23 14:26:26;;;;;;;24.25;15.78;;;;;;;;;;1763331;81;21157;-86